sensor_id;sensor_type;location;lat;lon;timestamp;temperature;humidity
292;DHT22;23311;48.776;9.162;2022-12-26T00:01:07;10.70;95.50
292;DHT22;23311;48.776;9.162;2022-12-26T00:03:36;10.70;95.50
292;DHT22;23311;48.776;9.162;2022-12-26T00:06:10;10.70;95.50
292;DHT22;23311;48.776;9.162;2022-12-26T00:08:39;10.70;95.50
292;DHT22;23311;48.776;9.162;2022-12-26T00:11:07;10.80;95.50
292;DHT22;23311;48.776;9.162;2022-12-26T00:13:35;10.80;95.50
292;DHT22;23311;48.776;9.162;2022-12-26T00:16:08;10.60;95.50
292;DHT22;23311;48.776;9.162;2022-12-26T00:18:37;10.50;95.50
292;DHT22;23311;48.776;9.162;2022-12-26T00:21:08;10.40;95.50
292;DHT22;23311;48.776;9.162;2022-12-26T00:23:37;10.20;95.50
292;DHT22;23311;48.776;9.162;2022-12-26T00:26:06;10.10;95.50
292;DHT22;23311;48.776;9.162;2022-12-26T00:28:35;10.00;95.50
292;DHT22;23311;48.776;9.162;2022-12-26T00:31:04;9.90;95.50
292;DHT22;23311;48.776;9.162;2022-12-26T00:33:32;9.90;95.50
292;DHT22;23311;48.776;9.162;2022-12-26T00:36:02;9.90;95.50
292;DHT22;23311;48.776;9.162;2022-12-26T00:38:33;9.90;95.50
292;DHT22;23311;48.776;9.162;2022-12-26T00:41:01;10.00;95.50
292;DHT22;23311;48.776;9.162;2022-12-26T00:43:29;9.90;95.50
292;DHT22;23311;48.776;9.162;2022-12-26T00:45:58;9.90;95.50
292;DHT22;23311;48.776;9.162;2022-12-26T00:48:26;9.80;95.50
292;DHT22;23311;48.776;9.162;2022-12-26T00:50:55;9.80;95.50
292;DHT22;23311;48.776;9.162;2022-12-26T00:53:23;9.80;95.50
292;DHT22;23311;48.776;9.162;2022-12-26T00:55:53;9.80;95.50
292;DHT22;23311;48.776;9.162;2022-12-26T00:58:22;9.80;95.50
292;DHT22;23311;48.776;9.162;2022-12-26T01:00:51;9.70;95.50
292;DHT22;23311;48.776;9.162;2022-12-26T01:03:19;9.90;95.50
292;DHT22;23311;48.776;9.162;2022-12-26T01:05:48;9.80;95.50
292;DHT22;23311;48.776;9.162;2022-12-26T01:08:17;9.90;95.50
292;DHT22;23311;48.776;9.162;2022-12-26T01:10:52;9.90;95.50
292;DHT22;23311;48.776;9.162;2022-12-26T01:13:20;9.80;95.50
292;DHT22;23311;48.776;9.162;2022-12-26T01:15:49;9.70;95.50
292;DHT22;23311;48.776;9.162;2022-12-26T01:18:18;9.70;95.50
292;DHT22;23311;48.776;9.162;2022-12-26T01:20:47;9.70;95.50
292;DHT22;23311;48.776;9.162;2022-12-26T01:23:16;9.60;95.50
292;DHT22;23311;48.776;9.162;2022-12-26T01:25:44;9.70;95.50
292;DHT22;23311;48.776;9.162;2022-12-26T01:28:34;9.70;95.50
292;DHT22;23311;48.776;9.162;2022-12-26T01:31:04;9.70;95.50
292;DHT22;23311;48.776;9.162;2022-12-26T01:33:33;9.60;95.50
292;DHT22;23311;48.776;9.162;2022-12-26T01:36:01;9.60;95.50
292;DHT22;23311;48.776;9.162;2022-12-26T01:38:29;9.60;95.50
292;DHT22;23311;48.776;9.162;2022-12-26T01:40:57;9.60;95.50
292;DHT22;23311;48.776;9.162;2022-12-26T01:43:55;9.70;95.50
292;DHT22;23311;48.776;9.162;2022-12-26T01:46:30;9.70;95.50
292;DHT22;23311;48.776;9.162;2022-12-26T01:49:04;9.70;95.50
292;DHT22;23311;48.776;9.162;2022-12-26T01:51:37;9.80;95.50
292;DHT22;23311;48.776;9.162;2022-12-26T01:54:07;9.80;95.50
292;DHT22;23311;48.776;9.162;2022-12-26T01:56:56;10.00;95.50
292;DHT22;23311;48.776;9.162;2022-12-26T01:59:28;10.00;95.50
292;DHT22;23311;48.776;9.162;2022-12-26T02:01:57;10.10;95.50
292;DHT22;23311;48.776;9.162;2022-12-26T02:04:29;10.20;95.50
292;DHT22;23311;48.776;9.162;2022-12-26T02:07:15;10.20;95.50
292;DHT22;23311;48.776;9.162;2022-12-26T02:09:43;10.40;95.50
292;DHT22;23311;48.776;9.162;2022-12-26T02:12:15;10.50;95.50
292;DHT22;23311;48.776;9.162;2022-12-26T02:15:06;10.60;95.50
292;DHT22;23311;48.776;9.162;2022-12-26T02:17:35;10.60;95.50
292;DHT22;23311;48.776;9.162;2022-12-26T02:20:14;10.60;95.50
292;DHT22;23311;48.776;9.162;2022-12-26T02:23:13;10.70;95.50
292;DHT22;23311;48.776;9.162;2022-12-26T02:32:04;10.60;95.50
292;DHT22;23311;48.776;9.162;2022-12-26T02:34:45;10.60;95.50
292;DHT22;23311;48.776;9.162;2022-12-26T02:37:26;10.70;95.50
292;DHT22;23311;48.776;9.162;2022-12-26T02:40:13;10.70;95.50
292;DHT22;23311;48.776;9.162;2022-12-26T02:42:51;10.70;95.50
292;DHT22;23311;48.776;9.162;2022-12-26T02:45:29;10.80;95.50
292;DHT22;23311;48.776;9.162;2022-12-26T02:48:22;10.80;95.50
292;DHT22;23311;48.776;9.162;2022-12-26T02:51:03;10.80;95.50
292;DHT22;23311;48.776;9.162;2022-12-26T02:53:59;10.80;95.50
292;DHT22;23311;48.776;9.162;2022-12-26T02:56:50;10.80;95.50
292;DHT22;23311;48.776;9.162;2022-12-26T02:59:45;10.80;95.50
292;DHT22;23311;48.776;9.162;2022-12-26T03:02:36;10.90;95.50
292;DHT22;23311;48.776;9.162;2022-12-26T03:05:29;11.00;95.50
292;DHT22;23311;48.776;9.162;2022-12-26T03:08:20;11.10;95.50
292;DHT22;23311;48.776;9.162;2022-12-26T03:11:07;11.10;95.50
292;DHT22;23311;48.776;9.162;2022-12-26T03:13:54;11.10;95.50
292;DHT22;23311;48.776;9.162;2022-12-26T03:16:24;11.10;95.50
292;DHT22;23311;48.776;9.162;2022-12-26T03:19:23;11.10;95.50
292;DHT22;23311;48.776;9.162;2022-12-26T03:21:55;11.10;95.50
292;DHT22;23311;48.776;9.162;2022-12-26T03:24:24;11.10;95.50
292;DHT22;23311;48.776;9.162;2022-12-26T03:27:12;11.10;95.50
292;DHT22;23311;48.776;9.162;2022-12-26T03:29:39;11.10;95.50
292;DHT22;23311;48.776;9.162;2022-12-26T03:32:24;11.20;95.50
292;DHT22;23311;48.776;9.162;2022-12-26T03:34:52;11.00;95.50
292;DHT22;23311;48.776;9.162;2022-12-26T03:37:35;11.10;95.50
292;DHT22;23311;48.776;9.162;2022-12-26T03:40:31;11.10;95.50
292;DHT22;23311;48.776;9.162;2022-12-26T03:43:35;11.10;95.50
292;DHT22;23311;48.776;9.162;2022-12-26T03:46:31;10.90;95.50
292;DHT22;23311;48.776;9.162;2022-12-26T03:49:22;10.90;95.50
292;DHT22;23311;48.776;9.162;2022-12-26T03:52:14;10.90;95.50
292;DHT22;23311;48.776;9.162;2022-12-26T03:55:10;11.00;95.50
292;DHT22;23311;48.776;9.162;2022-12-26T03:58:01;11.00;95.50
292;DHT22;23311;48.776;9.162;2022-12-26T04:00:50;11.00;95.50
292;DHT22;23311;48.776;9.162;2022-12-26T04:03:39;11.20;95.50
292;DHT22;23311;48.776;9.162;2022-12-26T04:06:31;11.20;95.50
292;DHT22;23311;48.776;9.162;2022-12-26T04:09:21;11.20;95.50
292;DHT22;23311;48.776;9.162;2022-12-26T04:12:15;11.30;95.50
292;DHT22;23311;48.776;9.162;2022-12-26T04:15:18;11.40;95.50
292;DHT22;23311;48.776;9.162;2022-12-26T04:18:09;11.40;95.50
292;DHT22;23311;48.776;9.162;2022-12-26T04:21:04;11.40;95.50
292;DHT22;23311;48.776;9.162;2022-12-26T04:23:40;11.40;95.50
292;DHT22;23311;48.776;9.162;2022-12-26T04:26:33;11.50;95.50
292;DHT22;23311;48.776;9.162;2022-12-26T04:29:22;11.60;95.50
292;DHT22;23311;48.776;9.162;2022-12-26T04:32:11;11.70;95.50
292;DHT22;23311;48.776;9.162;2022-12-26T04:35:04;11.70;95.50
292;DHT22;23311;48.776;9.162;2022-12-26T04:37:51;11.80;95.50
292;DHT22;23311;48.776;9.162;2022-12-26T04:40:40;11.80;95.50
292;DHT22;23311;48.776;9.162;2022-12-26T04:43:29;11.80;95.50
292;DHT22;23311;48.776;9.162;2022-12-26T04:46:20;11.90;95.50
292;DHT22;23311;48.776;9.162;2022-12-26T04:48:49;11.90;95.50
292;DHT22;23311;48.776;9.162;2022-12-26T04:51:44;11.80;95.50
292;DHT22;23311;48.776;9.162;2022-12-26T04:54:12;11.70;95.50
292;DHT22;23311;48.776;9.162;2022-12-26T04:56:40;11.70;95.50
292;DHT22;23311;48.776;9.162;2022-12-26T04:59:08;11.60;95.50
292;DHT22;23311;48.776;9.162;2022-12-26T05:01:37;11.60;95.50
292;DHT22;23311;48.776;9.162;2022-12-26T05:04:23;11.60;95.50
292;DHT22;23311;48.776;9.162;2022-12-26T05:07:14;11.50;95.50
292;DHT22;23311;48.776;9.162;2022-12-26T05:10:00;11.50;95.50
292;DHT22;23311;48.776;9.162;2022-12-26T05:12:28;11.50;95.50
292;DHT22;23311;48.776;9.162;2022-12-26T05:14:56;11.40;95.50
292;DHT22;23311;48.776;9.162;2022-12-26T05:17:26;11.40;95.50
292;DHT22;23311;48.776;9.162;2022-12-26T05:20:12;11.40;95.50
292;DHT22;23311;48.776;9.162;2022-12-26T05:22:59;11.30;95.50
292;DHT22;23311;48.776;9.162;2022-12-26T05:25:46;11.20;95.50
292;DHT22;23311;48.776;9.162;2022-12-26T05:28:33;11.10;95.50
292;DHT22;23311;48.776;9.162;2022-12-26T05:31:11;11.10;95.50
292;DHT22;23311;48.776;9.162;2022-12-26T05:33:42;11.10;95.50
292;DHT22;23311;48.776;9.162;2022-12-26T05:36:31;11.20;95.50
292;DHT22;23311;48.776;9.162;2022-12-26T05:39:00;11.20;95.50
292;DHT22;23311;48.776;9.162;2022-12-26T05:41:28;11.30;95.50
292;DHT22;23311;48.776;9.162;2022-12-26T05:43:56;11.30;95.50
292;DHT22;23311;48.776;9.162;2022-12-26T05:46:24;11.40;95.50
292;DHT22;23311;48.776;9.162;2022-12-26T05:48:54;11.50;95.50
292;DHT22;23311;48.776;9.162;2022-12-26T05:51:22;11.50;95.50
292;DHT22;23311;48.776;9.162;2022-12-26T05:53:50;11.60;95.50
292;DHT22;23311;48.776;9.162;2022-12-26T05:56:19;11.60;95.50
292;DHT22;23311;48.776;9.162;2022-12-26T05:58:53;11.60;95.50
292;DHT22;23311;48.776;9.162;2022-12-26T06:01:21;11.60;95.50
292;DHT22;23311;48.776;9.162;2022-12-26T06:03:51;11.60;95.50
292;DHT22;23311;48.776;9.162;2022-12-26T06:06:21;11.70;95.50
292;DHT22;23311;48.776;9.162;2022-12-26T06:08:51;11.70;95.50
292;DHT22;23311;48.776;9.162;2022-12-26T06:11:20;11.70;95.50
292;DHT22;23311;48.776;9.162;2022-12-26T06:13:48;11.70;95.50
292;DHT22;23311;48.776;9.162;2022-12-26T06:16:17;11.70;95.50
292;DHT22;23311;48.776;9.162;2022-12-26T06:18:46;11.70;95.50
292;DHT22;23311;48.776;9.162;2022-12-26T06:21:17;11.70;95.50
292;DHT22;23311;48.776;9.162;2022-12-26T06:23:47;11.70;95.50
292;DHT22;23311;48.776;9.162;2022-12-26T06:26:15;11.60;95.50
292;DHT22;23311;48.776;9.162;2022-12-26T06:28:44;11.60;95.50
292;DHT22;23311;48.776;9.162;2022-12-26T06:31:15;11.50;95.50
292;DHT22;23311;48.776;9.162;2022-12-26T06:33:46;11.60;95.50
292;DHT22;23311;48.776;9.162;2022-12-26T06:36:19;11.60;95.50
292;DHT22;23311;48.776;9.162;2022-12-26T06:38:49;11.60;95.50
292;DHT22;23311;48.776;9.162;2022-12-26T06:41:19;11.60;95.50
292;DHT22;23311;48.776;9.162;2022-12-26T06:43:48;11.60;95.50
292;DHT22;23311;48.776;9.162;2022-12-26T06:46:19;11.70;95.50
292;DHT22;23311;48.776;9.162;2022-12-26T06:48:48;11.70;95.50
292;DHT22;23311;48.776;9.162;2022-12-26T06:51:18;11.80;95.50
292;DHT22;23311;48.776;9.162;2022-12-26T06:53:47;11.80;95.50
292;DHT22;23311;48.776;9.162;2022-12-26T06:56:18;11.90;95.50
292;DHT22;23311;48.776;9.162;2022-12-26T06:58:47;11.90;95.50
292;DHT22;23311;48.776;9.162;2022-12-26T07:01:19;11.90;95.50
292;DHT22;23311;48.776;9.162;2022-12-26T07:03:48;11.90;95.50
292;DHT22;23311;48.776;9.162;2022-12-26T07:06:22;11.90;95.50
292;DHT22;23311;48.776;9.162;2022-12-26T07:08:51;11.90;95.50
292;DHT22;23311;48.776;9.162;2022-12-26T07:11:22;11.90;95.50
292;DHT22;23311;48.776;9.162;2022-12-26T07:13:51;11.90;95.50
292;DHT22;23311;48.776;9.162;2022-12-26T07:16:19;11.90;95.50
292;DHT22;23311;48.776;9.162;2022-12-26T07:18:48;11.90;95.50
292;DHT22;23311;48.776;9.162;2022-12-26T07:21:18;11.90;95.50
292;DHT22;23311;48.776;9.162;2022-12-26T07:23:46;11.90;95.50
292;DHT22;23311;48.776;9.162;2022-12-26T07:26:14;11.90;95.50
292;DHT22;23311;48.776;9.162;2022-12-26T07:28:44;11.90;95.50
292;DHT22;23311;48.776;9.162;2022-12-26T07:31:15;11.90;95.50
292;DHT22;23311;48.776;9.162;2022-12-26T07:33:46;11.90;95.50
292;DHT22;23311;48.776;9.162;2022-12-26T07:36:14;11.90;95.50
292;DHT22;23311;48.776;9.162;2022-12-26T07:38:42;11.90;95.50
292;DHT22;23311;48.776;9.162;2022-12-26T07:41:10;11.90;95.50
292;DHT22;23311;48.776;9.162;2022-12-26T07:43:58;11.90;95.50
292;DHT22;23311;48.776;9.162;2022-12-26T07:46:26;11.90;95.50
292;DHT22;23311;48.776;9.162;2022-12-26T07:48:54;11.90;95.50
292;DHT22;23311;48.776;9.162;2022-12-26T07:51:22;11.80;95.50
292;DHT22;23311;48.776;9.162;2022-12-26T07:53:50;11.80;95.50
292;DHT22;23311;48.776;9.162;2022-12-26T07:56:18;11.80;95.50
292;DHT22;23311;48.776;9.162;2022-12-26T07:58:47;11.80;95.50
292;DHT22;23311;48.776;9.162;2022-12-26T08:01:17;11.80;95.50
292;DHT22;23311;48.776;9.162;2022-12-26T08:03:47;11.80;95.50
292;DHT22;23311;48.776;9.162;2022-12-26T08:06:15;11.70;95.50
292;DHT22;23311;48.776;9.162;2022-12-26T08:08:44;11.60;95.50
292;DHT22;23311;48.776;9.162;2022-12-26T08:11:18;11.50;95.50
292;DHT22;23311;48.776;9.162;2022-12-26T08:13:47;11.30;95.50
292;DHT22;23311;48.776;9.162;2022-12-26T08:16:16;11.30;95.50
292;DHT22;23311;48.776;9.162;2022-12-26T08:18:44;11.20;95.50
292;DHT22;23311;48.776;9.162;2022-12-26T08:21:13;11.20;95.50
292;DHT22;23311;48.776;9.162;2022-12-26T08:23:41;11.20;95.50
292;DHT22;23311;48.776;9.162;2022-12-26T08:26:11;11.20;95.50
292;DHT22;23311;48.776;9.162;2022-12-26T08:28:46;11.20;95.50
292;DHT22;23311;48.776;9.162;2022-12-26T08:31:14;11.20;95.50
292;DHT22;23311;48.776;9.162;2022-12-26T08:33:44;11.30;95.50
292;DHT22;23311;48.776;9.162;2022-12-26T08:36:13;11.30;95.50
292;DHT22;23311;48.776;9.162;2022-12-26T08:38:42;11.40;95.50
292;DHT22;23311;48.776;9.162;2022-12-26T08:41:10;11.40;95.50
292;DHT22;23311;48.776;9.162;2022-12-26T08:43:38;11.50;95.50
292;DHT22;23311;48.776;9.162;2022-12-26T08:46:26;11.50;95.50
292;DHT22;23311;48.776;9.162;2022-12-26T08:48:56;11.50;95.50
292;DHT22;23311;48.776;9.162;2022-12-26T08:51:24;11.50;95.50
292;DHT22;23311;48.776;9.162;2022-12-26T08:53:54;11.50;95.50
292;DHT22;23311;48.776;9.162;2022-12-26T08:56:24;11.50;95.50
292;DHT22;23311;48.776;9.162;2022-12-26T08:58:52;11.50;95.50
292;DHT22;23311;48.776;9.162;2022-12-26T09:01:22;11.50;95.50
292;DHT22;23311;48.776;9.162;2022-12-26T09:03:51;11.50;95.50
292;DHT22;23311;48.776;9.162;2022-12-26T09:06:22;11.50;95.50
292;DHT22;23311;48.776;9.162;2022-12-26T09:08:50;11.40;95.50
292;DHT22;23311;48.776;9.162;2022-12-26T09:11:20;11.40;95.50
292;DHT22;23311;48.776;9.162;2022-12-26T09:13:48;11.30;95.50
292;DHT22;23311;48.776;9.162;2022-12-26T09:16:18;11.20;95.50
292;DHT22;23311;48.776;9.162;2022-12-26T09:18:47;11.10;95.50
292;DHT22;23311;48.776;9.162;2022-12-26T09:21:15;11.00;95.50
292;DHT22;23311;48.776;9.162;2022-12-26T09:23:45;10.90;95.50
292;DHT22;23311;48.776;9.162;2022-12-26T09:26:14;10.80;95.50
292;DHT22;23311;48.776;9.162;2022-12-26T09:28:43;10.80;95.50
292;DHT22;23311;48.776;9.162;2022-12-26T09:31:14;10.80;95.50
292;DHT22;23311;48.776;9.162;2022-12-26T09:33:43;10.80;95.50
292;DHT22;23311;48.776;9.162;2022-12-26T09:36:14;10.80;95.50
292;DHT22;23311;48.776;9.162;2022-12-26T09:38:43;10.80;95.50
292;DHT22;23311;48.776;9.162;2022-12-26T09:41:26;10.80;95.50
292;DHT22;23311;48.776;9.162;2022-12-26T09:44:02;10.80;95.50
292;DHT22;23311;48.776;9.162;2022-12-26T09:46:34;10.80;95.50
292;DHT22;23311;48.776;9.162;2022-12-26T09:49:07;10.80;95.50
292;DHT22;23311;48.776;9.162;2022-12-26T09:51:37;10.80;95.50
292;DHT22;23311;48.776;9.162;2022-12-26T09:54:13;10.70;95.50
292;DHT22;23311;48.776;9.162;2022-12-26T09:56:43;10.70;95.50
292;DHT22;23311;48.776;9.162;2022-12-26T09:59:41;10.70;95.50
292;DHT22;23311;48.776;9.162;2022-12-26T10:02:16;10.50;95.50
292;DHT22;23311;48.776;9.162;2022-12-26T10:04:44;10.30;95.50
292;DHT22;23311;48.776;9.162;2022-12-26T10:07:18;10.20;95.50
292;DHT22;23311;48.776;9.162;2022-12-26T10:09:54;10.20;95.50
292;DHT22;23311;48.776;9.162;2022-12-26T10:12:39;10.20;95.50
292;DHT22;23311;48.776;9.162;2022-12-26T10:15:18;10.30;95.50
292;DHT22;23311;48.776;9.162;2022-12-26T10:17:55;10.30;95.50
292;DHT22;23311;48.776;9.162;2022-12-26T10:20:33;10.30;95.50
292;DHT22;23311;48.776;9.162;2022-12-26T10:23:13;10.30;95.50
292;DHT22;23311;48.776;9.162;2022-12-26T10:25:47;10.30;95.50
292;DHT22;23311;48.776;9.162;2022-12-26T10:28:29;10.30;95.50
292;DHT22;23311;48.776;9.162;2022-12-26T10:31:03;10.40;95.50
292;DHT22;23311;48.776;9.162;2022-12-26T10:33:38;10.40;95.50
292;DHT22;23311;48.776;9.162;2022-12-26T10:36:20;10.30;95.50
292;DHT22;23311;48.776;9.162;2022-12-26T10:38:49;10.40;95.50
292;DHT22;23311;48.776;9.162;2022-12-26T10:41:23;10.40;95.50
292;DHT22;23311;48.776;9.162;2022-12-26T10:43:53;10.50;95.50
292;DHT22;23311;48.776;9.162;2022-12-26T10:46:40;10.50;95.50
292;DHT22;23311;48.776;9.162;2022-12-26T10:49:11;10.50;95.50
292;DHT22;23311;48.776;9.162;2022-12-26T10:51:40;10.50;95.50
292;DHT22;23311;48.776;9.162;2022-12-26T10:54:16;10.50;95.50
292;DHT22;23311;48.776;9.162;2022-12-26T10:56:48;10.50;95.50
292;DHT22;23311;48.776;9.162;2022-12-26T10:59:20;10.50;95.50
292;DHT22;23311;48.776;9.162;2022-12-26T11:01:49;10.50;95.50
292;DHT22;23311;48.776;9.162;2022-12-26T11:04:19;10.50;95.50
292;DHT22;23311;48.776;9.162;2022-12-26T11:07:10;10.50;95.50
292;DHT22;23311;48.776;9.162;2022-12-26T11:09:41;10.60;95.50
292;DHT22;23311;48.776;9.162;2022-12-26T11:12:19;10.60;95.50
292;DHT22;23311;48.776;9.162;2022-12-26T11:14:50;10.50;95.50
292;DHT22;23311;48.776;9.162;2022-12-26T11:17:26;10.50;95.50
292;DHT22;23311;48.776;9.162;2022-12-26T11:20:21;10.50;95.50
292;DHT22;23311;48.776;9.162;2022-12-26T11:22:50;10.50;95.50
292;DHT22;23311;48.776;9.162;2022-12-26T11:25:21;10.60;95.50
292;DHT22;23311;48.776;9.162;2022-12-26T11:27:51;10.60;95.50
292;DHT22;23311;48.776;9.162;2022-12-26T11:30:29;10.60;95.50
292;DHT22;23311;48.776;9.162;2022-12-26T11:33:09;10.70;95.50
292;DHT22;23311;48.776;9.162;2022-12-26T11:35:53;10.70;95.50
292;DHT22;23311;48.776;9.162;2022-12-26T11:38:22;10.70;95.50
292;DHT22;23311;48.776;9.162;2022-12-26T11:41:14;10.70;95.50
292;DHT22;23311;48.776;9.162;2022-12-26T11:44:16;10.70;95.50
292;DHT22;23311;48.776;9.162;2022-12-26T11:46:51;10.60;95.50
292;DHT22;23311;48.776;9.162;2022-12-26T11:49:25;10.60;95.50
292;DHT22;23311;48.776;9.162;2022-12-26T11:51:55;10.50;95.50
292;DHT22;23311;48.776;9.162;2022-12-26T11:54:30;10.50;95.50
292;DHT22;23311;48.776;9.162;2022-12-26T11:57:01;10.40;95.50
292;DHT22;23311;48.776;9.162;2022-12-26T11:59:30;10.50;95.50
292;DHT22;23311;48.776;9.162;2022-12-26T12:02:27;10.50;95.50
292;DHT22;23311;48.776;9.162;2022-12-26T12:05:00;10.50;95.50
292;DHT22;23311;48.776;9.162;2022-12-26T12:07:46;10.60;95.50
292;DHT22;23311;48.776;9.162;2022-12-26T12:10:46;10.70;95.50
292;DHT22;23311;48.776;9.162;2022-12-26T12:13:39;10.80;95.50
292;DHT22;23311;48.776;9.162;2022-12-26T12:16:18;11.00;95.50
292;DHT22;23311;48.776;9.162;2022-12-26T12:18:55;11.10;95.50
292;DHT22;23311;48.776;9.162;2022-12-26T12:21:30;11.20;95.50
292;DHT22;23311;48.776;9.162;2022-12-26T12:24:20;11.30;95.50
292;DHT22;23311;48.776;9.162;2022-12-26T12:26:56;11.40;95.50
292;DHT22;23311;48.776;9.162;2022-12-26T12:29:58;11.50;95.50
292;DHT22;23311;48.776;9.162;2022-12-26T12:32:32;11.50;95.50
292;DHT22;23311;48.776;9.162;2022-12-26T12:35:28;11.50;95.50
292;DHT22;23311;48.776;9.162;2022-12-26T12:38:19;11.50;95.50
292;DHT22;23311;48.776;9.162;2022-12-26T12:40:56;11.50;95.50
292;DHT22;23311;48.776;9.162;2022-12-26T12:43:32;11.50;95.50
292;DHT22;23311;48.776;9.162;2022-12-26T12:46:10;11.50;95.50
292;DHT22;23311;48.776;9.162;2022-12-26T12:48:55;11.60;95.50
292;DHT22;23311;48.776;9.162;2022-12-26T12:51:37;11.70;95.50
292;DHT22;23311;48.776;9.162;2022-12-26T12:54:35;11.70;95.50
292;DHT22;23311;48.776;9.162;2022-12-26T12:57:12;11.70;95.50
292;DHT22;23311;48.776;9.162;2022-12-26T12:59:51;11.80;95.50
292;DHT22;23311;48.776;9.162;2022-12-26T13:02:37;11.90;95.50
292;DHT22;23311;48.776;9.162;2022-12-26T13:05:16;11.80;95.50
292;DHT22;23311;48.776;9.162;2022-12-26T13:07:48;11.70;95.50
292;DHT22;23311;48.776;9.162;2022-12-26T13:10:20;11.70;95.50
292;DHT22;23311;48.776;9.162;2022-12-26T13:12:51;11.80;95.50
292;DHT22;23311;48.776;9.162;2022-12-26T13:15:28;11.80;95.50
292;DHT22;23311;48.776;9.162;2022-12-26T13:18:02;11.80;95.50
292;DHT22;23311;48.776;9.162;2022-12-26T13:20:37;11.70;95.50
292;DHT22;23311;48.776;9.162;2022-12-26T13:23:15;11.70;95.50
292;DHT22;23311;48.776;9.162;2022-12-26T13:26:08;11.70;95.50
292;DHT22;23311;48.776;9.162;2022-12-26T13:28:45;11.70;95.50
292;DHT22;23311;48.776;9.162;2022-12-26T13:31:16;11.70;95.50
292;DHT22;23311;48.776;9.162;2022-12-26T13:33:44;11.60;95.50
292;DHT22;23311;48.776;9.162;2022-12-26T13:36:34;11.60;95.50
292;DHT22;23311;48.776;9.162;2022-12-26T13:39:32;11.60;95.50
292;DHT22;23311;48.776;9.162;2022-12-26T13:45:38;11.50;95.50
292;DHT22;23311;48.776;9.162;2022-12-26T13:48:45;11.60;95.50
292;DHT22;23311;48.776;9.162;2022-12-26T13:51:44;11.70;95.50
292;DHT22;23311;48.776;9.162;2022-12-26T13:54:14;11.70;95.50
292;DHT22;23311;48.776;9.162;2022-12-26T13:57:19;11.70;95.50
292;DHT22;23311;48.776;9.162;2022-12-26T14:03:15;11.60;95.50
292;DHT22;23311;48.776;9.162;2022-12-26T14:09:08;11.50;95.50
292;DHT22;23311;48.776;9.162;2022-12-26T14:11:55;11.40;95.50
292;DHT22;23311;48.776;9.162;2022-12-26T14:14:32;11.30;95.50
292;DHT22;23311;48.776;9.162;2022-12-26T14:17:13;11.30;95.50
292;DHT22;23311;48.776;9.162;2022-12-26T14:19:51;11.20;95.50
292;DHT22;23311;48.776;9.162;2022-12-26T14:22:26;11.20;95.50
292;DHT22;23311;48.776;9.162;2022-12-26T14:25:04;11.20;95.50
292;DHT22;23311;48.776;9.162;2022-12-26T14:27:42;11.20;95.50
292;DHT22;23311;48.776;9.162;2022-12-26T14:30:19;11.20;95.50
292;DHT22;23311;48.776;9.162;2022-12-26T14:32:59;11.30;95.50
292;DHT22;23311;48.776;9.162;2022-12-26T14:35:32;11.20;95.50
292;DHT22;23311;48.776;9.162;2022-12-26T14:38:16;11.20;95.50
292;DHT22;23311;48.776;9.162;2022-12-26T14:40:58;11.10;95.50
292;DHT22;23311;48.776;9.162;2022-12-26T14:43:36;11.10;95.50
292;DHT22;23311;48.776;9.162;2022-12-26T14:46:44;11.00;95.50
292;DHT22;23311;48.776;9.162;2022-12-26T14:48:58;11.00;95.50
292;DHT22;23311;48.776;9.162;2022-12-26T14:51:30;11.10;95.50
292;DHT22;23311;48.776;9.162;2022-12-26T14:57:42;11.10;95.50
292;DHT22;23311;48.776;9.162;2022-12-26T15:00:32;11.00;95.50
292;DHT22;23311;48.776;9.162;2022-12-26T15:06:52;10.90;95.50
292;DHT22;23311;48.776;9.162;2022-12-26T15:13:06;10.80;95.50
292;DHT22;23311;48.776;9.162;2022-12-26T15:15:58;10.80;95.50
292;DHT22;23311;48.776;9.162;2022-12-26T15:19:03;10.70;95.50
292;DHT22;23311;48.776;9.162;2022-12-26T15:25:25;10.60;95.50
292;DHT22;23311;48.776;9.162;2022-12-26T15:31:13;10.50;95.50
292;DHT22;23311;48.776;9.162;2022-12-26T15:33:49;10.50;95.50
292;DHT22;23311;48.776;9.162;2022-12-26T15:36:24;10.50;95.50
292;DHT22;23311;48.776;9.162;2022-12-26T15:38:57;10.50;95.50
292;DHT22;23311;48.776;9.162;2022-12-26T15:41:34;10.50;95.50
292;DHT22;23311;48.776;9.162;2022-12-26T15:44:15;10.60;95.50
292;DHT22;23311;48.776;9.162;2022-12-26T15:46:49;10.50;95.50
292;DHT22;23311;48.776;9.162;2022-12-26T15:49:40;10.50;95.50
292;DHT22;23311;48.776;9.162;2022-12-26T15:52:19;10.50;95.50
292;DHT22;23311;48.776;9.162;2022-12-26T15:55:16;10.50;95.50
292;DHT22;23311;48.776;9.162;2022-12-26T15:57:55;10.50;95.50
292;DHT22;23311;48.776;9.162;2022-12-26T16:00:25;10.40;95.50
292;DHT22;23311;48.776;9.162;2022-12-26T16:03:08;10.50;95.50
292;DHT22;23311;48.776;9.162;2022-12-26T16:05:43;10.40;95.50
292;DHT22;23311;48.776;9.162;2022-12-26T16:08:39;10.30;95.50
292;DHT22;23311;48.776;9.162;2022-12-26T16:11:16;10.30;95.50
292;DHT22;23311;48.776;9.162;2022-12-26T16:13:50;10.30;95.50
292;DHT22;23311;48.776;9.162;2022-12-26T16:16:27;10.20;95.50
292;DHT22;23311;48.776;9.162;2022-12-26T16:18:57;10.10;95.50
292;DHT22;23311;48.776;9.162;2022-12-26T16:21:40;10.10;95.50
292;DHT22;23311;48.776;9.162;2022-12-26T16:24:26;10.10;95.50
292;DHT22;23311;48.776;9.162;2022-12-26T16:26:58;10.10;95.50
292;DHT22;23311;48.776;9.162;2022-12-26T16:29:28;10.00;95.50
292;DHT22;23311;48.776;9.162;2022-12-26T16:32:01;10.00;95.50
292;DHT22;23311;48.776;9.162;2022-12-26T16:34:33;10.00;95.50
292;DHT22;23311;48.776;9.162;2022-12-26T16:37:02;10.10;95.50
292;DHT22;23311;48.776;9.162;2022-12-26T16:39:30;10.30;95.50
292;DHT22;23311;48.776;9.162;2022-12-26T16:42:02;10.20;95.50
292;DHT22;23311;48.776;9.162;2022-12-26T16:44:36;10.10;95.50
292;DHT22;23311;48.776;9.162;2022-12-26T16:47:08;10.20;95.50
292;DHT22;23311;48.776;9.162;2022-12-26T16:49:39;10.20;95.50
292;DHT22;23311;48.776;9.162;2022-12-26T16:52:29;10.20;95.50
292;DHT22;23311;48.776;9.162;2022-12-26T16:54:57;10.00;95.50
292;DHT22;23311;48.776;9.162;2022-12-26T16:57:45;10.00;95.50
292;DHT22;23311;48.776;9.162;2022-12-26T17:00:16;9.90;95.50
292;DHT22;23311;48.776;9.162;2022-12-26T17:02:47;9.90;95.50
292;DHT22;23311;48.776;9.162;2022-12-26T17:05:20;9.90;95.50
292;DHT22;23311;48.776;9.162;2022-12-26T17:07:49;10.00;95.50
292;DHT22;23311;48.776;9.162;2022-12-26T17:10:21;10.00;95.50
292;DHT22;23311;48.776;9.162;2022-12-26T17:12:50;10.10;95.50
292;DHT22;23311;48.776;9.162;2022-12-26T17:15:20;10.10;95.50
292;DHT22;23311;48.776;9.162;2022-12-26T17:17:49;10.10;95.50
292;DHT22;23311;48.776;9.162;2022-12-26T17:20:34;10.00;95.50
292;DHT22;23311;48.776;9.162;2022-12-26T17:23:31;10.10;95.50
292;DHT22;23311;48.776;9.162;2022-12-26T17:26:20;10.00;95.50
292;DHT22;23311;48.776;9.162;2022-12-26T17:28:48;10.10;95.50
292;DHT22;23311;48.776;9.162;2022-12-26T17:31:21;10.20;95.50
292;DHT22;23311;48.776;9.162;2022-12-26T17:33:54;10.30;95.50
292;DHT22;23311;48.776;9.162;2022-12-26T17:36:26;10.20;95.50